Time;durP1;ratioP1;P1;durP2;ratioP2;P2;SDS_P1;SDS_P2;PMS_P1;PMS_P2;Temp;Humidity;BMP_temperature;BMP_pressure;BME280_temperature;BME280_humidity;BME280_pressure;Samples;Min_cycle;Max_cycle;Signal;HPM_P1;HPM_P2
2023/05/03 07:00:11;;;;;;;6.27;2.17;;;20.20;66.90;;;;;;4932043;29;20461;-88
2023/05/03 07:02:37;;;;;;;9.90;2.70;;;20.20;66.40;;;;;;4936057;29;20450;-85
2023/05/03 07:05:05;;;;;;;3.00;1.73;;;20.20;65.90;;;;;;4935837;29;20457;-85
2023/05/03 07:07:33;;;;;;;2.47;1.40;;;20.30;66.00;;;;;;4936059;29;20497;-85
2023/05/03 07:10:00;;;;;;;5.93;1.70;;;20.30;66.20;;;;;;4935844;29;20450;-86
2023/05/03 07:12:27;;;;;;;5.10;1.90;;;20.40;66.00;;;;;;4936169;29;20839;-88
2023/05/03 07:14:54;;;;;;;5.40;1.60;;;20.40;66.00;;;;;;4936079;29;21020;-91
2023/05/03 07:17:23;;;;;;;5.67;1.83;;;20.40;66.00;;;;;;4936359;29;20460;-91
2023/05/03 07:19:50;;;;;;;7.10;1.50;;;20.40;65.70;;;;;;4936228;29;20465;-90
2023/05/03 07:22:19;;;;;;;2.43;1.43;;;20.40;65.70;;;;;;4936179;29;20458;-90
2023/05/03 07:24:46;;;;;;;4.13;1.23;;;20.40;65.70;;;;;;4936519;29;20503;-92
2023/05/03 07:27:14;;;;;;;7.00;1.87;;;20.40;65.80;;;;;;4936062;29;20798;-91
2023/05/03 07:29:41;;;;;;;3.47;1.93;;;20.40;65.90;;;;;;4939798;29;20450;-91
2023/05/03 07:32:08;;;;;;;3.60;1.70;;;20.40;65.90;;;;;;4940158;29;20453;-91
2023/05/03 07:34:36;;;;;;;3.10;1.60;;;20.50;66.00;;;;;;4940275;29;20490;-89
2023/05/03 07:37:03;;;;;;;6.17;1.47;;;20.40;65.80;;;;;;4940017;29;20814;-88
2023/05/03 07:39:31;;;;;;;5.50;1.60;;;20.50;66.20;;;;;;4939953;29;20460;-85
2023/05/03 07:41:57;;;;;;;3.87;1.63;;;20.50;66.20;;;;;;4939573;29;20454;-85
2023/05/03 07:44:24;;;;;;;9.60;1.37;;;20.50;66.20;;;;;;4939526;29;20944;-85
2023/05/03 07:46:51;;;;;;;2.37;1.10;;;20.50;66.20;;;;;;4939794;29;20455;-85
2023/05/03 07:49:18;;;;;;;5.03;1.67;;;20.50;66.40;;;;;;4939823;29;20455;-85
2023/05/03 07:51:46;;;;;;;3.70;1.67;;;20.50;66.40;;;;;;4939739;29;20458;-86
2023/05/03 07:54:13;;;;;;;2.80;1.50;;;20.50;66.40;;;;;;4940408;29;20478;-87
2023/05/03 07:56:39;;;;;;;3.90;1.50;;;20.50;66.50;;;;;;4939648;29;20457;-87
2023/05/03 07:59:06;;;;;;;4.20;1.13;;;20.50;66.40;;;;;;4939296;29;20936;-85
2023/05/03 08:01:33;;;;;;;3.37;1.33;;;20.60;66.60;;;;;;4939018;29;20482;-86
2023/05/03 08:04:00;;;;;;;4.77;1.30;;;20.60;66.80;;;;;;4940090;29;20453;-86
2023/05/03 08:06:27;;;;;;;4.10;1.70;;;20.60;66.90;;;;;;4939200;29;20541;-88
2023/05/03 08:08:55;;;;;;;3.30;1.47;;;20.60;66.70;;;;;;4939318;29;20450;-85
2023/05/03 08:11:22;;;;;;;4.27;1.30;;;20.70;67.00;;;;;;4939419;29;20504;-86
2023/05/03 08:13:49;;;;;;;4.87;1.30;;;20.70;66.90;;;;;;4939268;29;20442;-86
2023/05/03 08:16:16;;;;;;;1.30;1.10;;;20.70;66.90;;;;;;4938908;29;20490;-86
2023/05/03 08:18:43;;;;;;;3.33;1.20;;;20.70;67.00;;;;;;4938956;29;20450;-86
2023/05/03 08:21:12;;;;;;;3.00;1.33;;;20.80;67.10;;;;;;4939609;29;20501;-87
2023/05/03 08:23:39;;;;;;;1.33;1.23;;;20.80;67.00;;;;;;4938748;29;20949;-87
2023/05/03 08:26:08;;;;;;;1.80;1.20;;;20.80;67.10;;;;;;4938786;29;20970;-88
2023/05/03 08:28:36;;;;;;;1.93;1.27;;;20.80;67.80;;;;;;4939202;29;20446;-86
2023/05/03 08:31:03;;;;;;;3.73;1.43;;;20.80;66.90;;;;;;4938701;29;20453;-86
2023/05/03 08:33:30;;;;;;;2.27;1.40;;;20.90;67.10;;;;;;4939013;29;20443;-86
2023/05/03 08:35:57;;;;;;;2.40;1.67;;;20.90;67.10;;;;;;4938870;29;20516;-86
2023/05/03 08:38:24;;;;;;;3.73;1.30;;;21.00;67.10;;;;;;4939445;29;20457;-86
2023/05/03 08:40:54;;;;;;;1.70;0.90;;;21.00;67.10;;;;;;4937586;29;20451;-86
2023/05/03 08:43:27;;;;;;;7.73;1.00;;;21.00;67.20;;;;;;4938897;29;20446;-85
2023/05/03 08:45:54;;;;;;;2.60;1.00;;;21.00;68.10;;;;;;4939400;29;20439;-88
2023/05/03 08:48:21;;;;;;;1.40;1.20;;;21.10;67.30;;;;;;4938690;29;20814;-86
2023/05/03 08:50:52;;;;;;;2.03;1.03;;;21.10;67.30;;;;;;4938415;29;20510;-89
2023/05/03 08:53:19;;;;;;;2.47;1.10;;;21.10;67.40;;;;;;4938762;29;20447;-86
2023/05/03 08:55:46;;;;;;;3.80;1.20;;;21.10;68.10;;;;;;4938202;29;20494;-86
2023/05/03 08:58:13;;;;;;;1.57;1.17;;;21.20;67.40;;;;;;4938406;29;20541;-87
2023/05/03 09:00:43;;;;;;;3.33;1.20;;;21.30;67.70;;;;;;4938583;29;20573;-87
2023/05/03 09:03:10;;;;;;;2.30;1.47;;;21.20;67.40;;;;;;4938135;29;20459;-87
2023/05/03 09:05:39;;;;;;;1.80;1.10;;;21.20;67.50;;;;;;4938375;29;20443;-86
2023/05/03 09:08:08;;;;;;;1.87;1.03;;;21.30;67.60;;;;;;4938195;29;20514;-86
2023/05/03 09:10:38;;;;;;;3.63;1.03;;;21.30;67.50;;;;;;4938321;29;20515;-87
2023/05/03 09:13:06;;;;;;;1.50;1.17;;;21.30;67.50;;;;;;4938641;29;20427;-86
2023/05/03 09:15:34;;;;;;;1.83;1.60;;;21.40;67.50;;;;;;4938103;29;20562;-86
2023/05/03 09:18:12;;;;;;;2.00;1.20;;;21.40;67.50;;;;;;4938242;29;20458;-88
2023/05/03 09:20:41;;;;;;;1.47;0.90;;;21.40;67.50;;;;;;4938164;29;20435;-89
2023/05/03 09:23:09;;;;;;;1.90;1.00;;;21.50;67.70;;;;;;4938105;29;20443;-86
2023/05/03 09:25:44;;;;;;;1.70;1.07;;;21.50;67.30;;;;;;4938467;29;20439;-87
2023/05/03 09:28:11;;;;;;;2.70;1.73;;;21.50;67.40;;;;;;4937926;29;20524;-86
2023/05/03 09:30:38;;;;;;;2.40;1.10;;;21.50;67.40;;;;;;4937976;29;20461;-86
2023/05/03 09:33:05;;;;;;;1.40;1.13;;;21.50;67.60;;;;;;4937904;29;20828;-87
2023/05/03 09:35:34;;;;;;;1.60;1.00;;;21.50;67.60;;;;;;4937401;29;20486;-86
2023/05/03 09:38:01;;;;;;;1.77;0.93;;;21.60;67.60;;;;;;4937797;29;20873;-87
2023/05/03 09:40:28;;;;;;;1.67;1.00;;;21.70;67.60;;;;;;4937725;29;20454;-87
2023/05/03 09:43:15;;;;;;;1.47;0.90;;;21.70;67.70;;;;;;4937848;29;20451;-86
2023/05/03 09:49:03;;;;;;;2.03;1.00;;;21.80;67.90;;;;;;4937563;29;20450;-86
2023/05/03 09:51:31;;;;;;;1.70;1.10;;;21.70;67.70;;;;;;4937123;29;20926;-88
2023/05/03 09:53:59;;;;;;;2.03;1.10;;;21.80;67.90;;;;;;4937652;29;20782;-88
2023/05/03 09:56:26;;;;;;;3.47;1.40;;;21.80;67.80;;;;;;4937075;29;20575;-87
2023/05/03 09:58:54;;;;;;;1.30;1.10;;;21.90;67.90;;;;;;4937160;29;20453;-86
2023/05/03 10:01:22;;;;;;;1.80;1.07;;;21.90;68.00;;;;;;4937147;29;20486;-88
2023/05/03 10:03:50;;;;;;;1.73;1.00;;;21.90;67.80;;;;;;4937338;29;20933;-87
2023/05/03 10:06:25;;;;;;;2.43;1.40;;;22.00;67.80;;;;;;4937409;29;20792;-86
2023/05/03 10:09:04;;;;;;;2.23;1.10;;;22.00;65.70;;;;;;4937392;29;20442;-85
2023/05/03 10:11:35;;;;;;;3.83;1.00;;;21.90;63.60;;;;;;4937288;29;20495;-86
2023/05/03 10:14:02;;;;;;;1.60;1.10;;;21.70;63.10;;;;;;4937225;29;20458;-86
2023/05/03 10:16:33;;;;;;;1.83;1.20;;;21.70;63.10;;;;;;4937296;29;20494;-90
2023/05/03 10:19:09;;;;;;;1.23;1.13;;;21.60;62.50;;;;;;4937127;29;20443;-89
2023/05/03 10:21:51;;;;;;;6.70;1.03;;;21.50;61.60;;;;;;4936968;29;20486;-83
2023/05/03 10:24:19;;;;;;;1.70;0.90;;;21.50;63.70;;;;;;4937014;29;20533;-90
2023/05/03 10:30:27;;;;;;;1.90;1.03;;;21.60;63.60;;;;;;4936710;29;20491;-91
2023/05/03 10:32:54;;;;;;;1.77;1.30;;;21.70;63.80;;;;;;4937026;29;20446;-92
2023/05/03 10:35:21;;;;;;;1.83;1.20;;;21.80;64.10;;;;;;4936465;29;20545;-86
2023/05/03 10:37:49;;;;;;;2.40;1.43;;;21.90;64.20;;;;;;4936728;29;20459;-86
2023/05/03 10:40:20;;;;;;;3.47;1.20;;;22.00;64.40;;;;;;4936817;29;20877;-92
2023/05/03 10:42:52;;;;;;;2.43;1.30;;;22.00;64.40;;;;;;4936858;29;20439;-86
2023/05/03 10:45:27;;;;;;;1.67;1.10;;;22.10;64.60;;;;;;4936815;29;20442;-92
2023/05/03 10:48:19;;;;;;;2.03;1.10;;;22.10;64.80;;;;;;4937441;29;20437;-86
2023/05/03 10:50:47;;;;;;;1.97;0.90;;;22.10;65.00;;;;;;4936737;29;20506;-86
2023/05/03 10:53:35;;;;;;;4.10;1.47;;;22.10;65.10;;;;;;4936233;29;20446;-86
2023/05/03 10:56:06;;;;;;;1.50;1.30;;;22.10;63.70;;;;;;4937742;29;20478;-87
2023/05/03 10:58:37;;;;;;;4.70;0.93;;;22.20;65.30;;;;;;4937109;29;20746;-86
2023/05/03 11:01:05;;;;;;;4.87;1.20;;;22.20;65.40;;;;;;4936297;29;20483;-86
2023/05/03 11:03:48;;;;;;;1.30;1.20;;;22.30;65.50;;;;;;4936091;29;20439;-85
2023/05/03 11:06:31;;;;;;;1.83;1.10;;;22.30;66.50;;;;;;4936553;29;20518;-86
2023/05/03 11:08:58;;;;;;;6.83;1.43;;;22.30;65.70;;;;;;4936558;29;20478;-86
2023/05/03 11:14:50;;;;;;;1.70;1.07;;;22.30;65.80;;;;;;4936394;29;20450;-87
2023/05/03 11:17:17;;;;;;;2.23;0.90;;;22.40;66.10;;;;;;4936638;29;20442;-85
2023/05/03 11:19:45;;;;;;;1.77;1.00;;;22.40;66.10;;;;;;4936255;29;20446;-89
2023/05/03 11:22:12;;;;;;;1.90;1.47;;;22.40;66.10;;;;;;4936604;29;20537;-84
2023/05/03 11:28:01;;;;;;;1.27;1.10;;;22.50;66.40;;;;;;4936067;29;20439;-88
2023/05/03 11:33:51;;;;;;;2.80;1.27;;;22.50;66.60;;;;;;4936233;29;20406;-94
2023/05/03 11:36:18;;;;;;;3.20;1.57;;;22.60;66.40;;;;;;4935756;29;20510;-86
2023/05/03 11:38:45;;;;;;;2.50;1.30;;;22.60;66.40;;;;;;4935787;29;20457;-86
2023/05/03 11:41:15;;;;;;;1.90;1.17;;;22.60;66.70;;;;;;4936122;29;20541;-87
2023/05/03 11:43:42;;;;;;;1.53;0.90;;;22.60;66.70;;;;;;4939041;29;20486;-96
2023/05/03 11:46:10;;;;;;;2.53;1.13;;;22.70;66.70;;;;;;4937150;29;20445;-89
2023/05/03 11:52:12;;;;;;;2.77;1.20;;;22.70;66.70;;;;;;4936209;29;20422;-88
2023/05/03 11:54:39;;;;;;;3.43;0.90;;;22.70;65.70;;;;;;4936121;29;20882;-87
2023/05/03 11:57:15;;;;;;;2.33;0.93;;;22.60;64.20;;;;;;4939107;29;20523;-94
2023/05/03 11:59:42;;;;;;;1.93;0.90;;;22.50;65.70;;;;;;4937733;29;20470;-95
2023/05/03 12:02:11;;;;;;;1.47;1.17;;;22.50;66.10;;;;;;4936309;29;20501;-95
2023/05/03 12:04:40;;;;;;;2.13;1.10;;;22.50;66.30;;;;;;4936494;29;20451;-95
2023/05/03 12:07:08;;;;;;;2.10;1.10;;;22.60;66.40;;;;;;4936283;29;20469;-94
2023/05/03 12:09:37;;;;;;;5.97;1.27;;;22.60;66.40;;;;;;4936099;29;20476;-94
2023/05/03 12:12:04;;;;;;;1.67;1.30;;;22.70;66.50;;;;;;4936109;29;20969;-95
2023/05/03 12:14:56;;;;;;;6.60;1.30;;;22.80;66.50;;;;;;4936273;29;20482;-94
2023/05/03 12:17:34;;;;;;;3.70;1.03;;;22.80;66.40;;;;;;4939469;29;20501;-95
2023/05/03 12:20:17;;;;;;;1.30;1.10;;;22.80;66.40;;;;;;4939772;29;20431;-94
2023/05/03 12:22:45;;;;;;;2.80;1.10;;;22.80;66.60;;;;;;4939303;29;20873;-95
2023/05/03 12:25:13;;;;;;;1.57;1.20;;;22.80;66.50;;;;;;4939569;29;20466;-95
2023/05/03 12:27:40;;;;;;;1.53;1.10;;;22.80;66.70;;;;;;4939493;29;20447;-95
2023/05/03 12:30:09;;;;;;;1.30;1.00;;;22.90;66.90;;;;;;4939772;29;20453;-95
2023/05/03 12:32:37;;;;;;;3.63;1.10;;;22.80;66.60;;;;;;4940275;29;20443;-95
2023/05/03 12:35:04;;;;;;;1.97;1.00;;;22.80;66.70;;;;;;4939444;29;20502;-95
2023/05/03 12:37:31;;;;;;;2.67;1.40;;;22.80;66.60;;;;;;4939130;29;20577;-95
2023/05/03 12:39:58;;;;;;;1.47;1.07;;;22.80;66.60;;;;;;4939552;29;20801;-96
2023/05/03 12:42:27;;;;;;;5.33;1.17;;;22.80;66.80;;;;;;4939309;29;20457;-95
2023/05/03 12:44:56;;;;;;;1.63;1.20;;;22.90;66.80;;;;;;4939715;29;20446;-96
2023/05/03 12:47:23;;;;;;;2.10;1.00;;;22.90;66.80;;;;;;4939452;29;20451;-95
2023/05/03 12:49:50;;;;;;;1.87;0.97;;;22.90;66.80;;;;;;4939333;29;20813;-95
2023/05/03 12:52:17;;;;;;;1.23;1.13;;;22.90;66.80;;;;;;4939047;29;20887;-95
2023/05/03 12:54:45;;;;;;;1.57;0.90;;;22.90;66.90;;;;;;4938731;29;20479;-95
2023/05/03 12:57:13;;;;;;;1.90;1.10;;;22.90;66.90;;;;;;4939273;29;20494;-95
2023/05/03 12:59:41;;;;;;;2.00;1.10;;;22.90;67.70;;;;;;4938724;29;20454;-95
2023/05/03 13:02:09;;;;;;;4.10;0.93;;;22.90;67.00;;;;;;4938782;29;20487;-95
2023/05/03 13:04:36;;;;;;;1.83;1.30;;;22.90;67.10;;;;;;4939031;29;21029;-95
2023/05/03 13:07:04;;;;;;;1.37;1.00;;;22.90;67.10;;;;;;4939693;29;20443;-96
2023/05/03 13:09:31;;;;;;;1.67;1.53;;;22.90;67.00;;;;;;4941458;29;20867;-95
2023/05/03 13:11:58;;;;;;;2.50;0.90;;;22.90;67.00;;;;;;4938870;29;20451;-94
2023/05/03 13:14:25;;;;;;;1.40;1.10;;;22.90;67.90;;;;;;4938489;29;20457;-94
2023/05/03 13:16:53;;;;;;;1.20;0.80;;;22.90;67.10;;;;;;4939564;29;20484;-94
2023/05/03 13:19:20;;;;;;;1.27;0.80;;;22.90;67.20;;;;;;4938718;29;20515;-94
2023/05/03 13:21:48;;;;;;;1.53;1.00;;;23.00;67.40;;;;;;4938801;29;20793;-95
2023/05/03 13:24:15;;;;;;;2.47;1.00;;;22.90;67.30;;;;;;4938809;29;20455;-94
2023/05/03 13:26:42;;;;;;;1.53;0.93;;;22.90;67.20;;;;;;4938229;29;20534;-95
2023/05/03 13:29:09;;;;;;;1.40;1.00;;;22.80;67.30;;;;;;4938845;29;20461;-94
2023/05/03 13:31:36;;;;;;;1.40;0.90;;;22.80;67.30;;;;;;4938707;29;20465;-95
2023/05/03 13:34:05;;;;;;;1.70;0.83;;;22.80;67.30;;;;;;4938467;29;20934;-95
2023/05/03 13:36:32;;;;;;;1.20;0.90;;;23.00;67.60;;;;;;4938612;29;20482;-94
2023/05/03 13:39:00;;;;;;;1.93;0.70;;;22.80;67.50;;;;;;4938219;29;20444;-96
2023/05/03 13:41:27;;;;;;;1.00;0.70;;;22.80;67.60;;;;;;4938278;29;20449;-94
2023/05/03 13:43:54;;;;;;;2.47;1.40;;;22.80;67.60;;;;;;4938201;29;20451;-94
2023/05/03 13:46:22;;;;;;;1.93;1.10;;;22.80;67.50;;;;;;4937925;29;20486;-95
2023/05/03 13:48:48;;;;;;;1.30;1.00;;;22.80;67.60;;;;;;4938140;29;20470;-95
2023/05/03 13:51:17;;;;;;;1.27;0.87;;;22.80;67.60;;;;;;4938077;29;20879;-95
2023/05/03 13:53:43;;;;;;;1.73;0.97;;;22.80;67.60;;;;;;4938648;29;20543;-95
2023/05/03 13:56:10;;;;;;;1.53;1.20;;;22.80;67.60;;;;;;4937894;29;20478;-95
2023/05/03 13:58:38;;;;;;;1.10;1.00;;;22.80;67.70;;;;;;4937530;29;20550;-94
2023/05/03 14:01:05;;;;;;;1.27;0.90;;;22.70;67.60;;;;;;4937496;29;20861;-94
2023/05/03 14:03:32;;;;;;;1.10;0.80;;;22.80;67.80;;;;;;4937626;29;20475;-94
2023/05/03 14:05:59;;;;;;;1.80;1.23;;;22.80;67.70;;;;;;4937841;29;20443;-94
2023/05/03 14:08:27;;;;;;;1.40;0.90;;;22.70;67.60;;;;;;4937750;29;20446;-95
2023/05/03 14:10:54;;;;;;;2.10;1.00;;;22.70;67.70;;;;;;4937884;29;20953;-95
2023/05/03 14:13:21;;;;;;;1.00;0.80;;;22.70;67.60;;;;;;4937770;29;20458;-94
2023/05/03 14:15:48;;;;;;;1.40;1.00;;;22.70;67.60;;;;;;4937699;29;20447;-95
2023/05/03 14:18:16;;;;;;;1.30;1.10;;;22.70;67.60;;;;;;4939183;29;20486;-96
2023/05/03 14:20:43;;;;;;;1.20;1.00;;;22.70;67.60;;;;;;4948461;28;20458;-91
2023/05/03 14:23:10;;;;;;;1.10;0.80;;;22.70;67.60;;;;;;4944643;28;20451;-95
2023/05/03 14:25:38;;;;;;;2.17;1.20;;;22.80;67.60;;;;;;4939141;29;20510;-95
2023/05/03 14:28:05;;;;;;;1.20;0.90;;;22.70;67.60;;;;;;4938385;29;20482;-96
2023/05/03 14:30:32;;;;;;;3.17;1.10;;;22.70;67.60;;;;;;4938795;29;20887;-96
2023/05/03 14:32:59;;;;;;;1.07;0.90;;;22.70;67.60;;;;;;4921413;29;20458;-95
2023/05/03 14:35:26;;;;;;;1.10;0.90;;;22.70;67.60;;;;;;4937639;29;20977;-96
2023/05/03 14:37:53;;;;;;;1.10;0.80;;;22.60;67.60;;;;;;4936550;29;20529;-96
2023/05/03 14:40:20;;;;;;;1.23;0.80;;;22.60;67.60;;;;;;4937362;29;20930;-95
2023/05/03 14:42:48;;;;;;;1.30;0.90;;;22.60;67.60;;;;;;4937110;29;20454;-94
2023/05/03 14:45:15;;;;;;;1.40;0.90;;;22.80;67.70;;;;;;4937111;29;21009;-94
2023/05/03 14:47:42;;;;;;;1.77;0.90;;;22.70;67.40;;;;;;4937011;29;20453;-94
2023/05/03 14:50:10;;;;;;;2.90;0.90;;;22.70;67.20;;;;;;4936861;29;20447;-94
2023/05/03 14:52:37;;;;;;;1.60;1.20;;;22.70;67.00;;;;;;4937233;29;20930;-94
2023/05/03 14:55:05;;;;;;;1.50;0.93;;;22.80;66.90;;;;;;4936813;29;20518;-94
2023/05/03 14:57:32;;;;;;;1.10;0.80;;;22.80;66.80;;;;;;4936684;29;20505;-94
2023/05/03 15:00:03;;;;;;;1.10;0.90;;;22.80;66.60;;;;;;4937774;29;20981;-86
2023/05/03 15:02:30;;;;;;;4.23;1.00;;;22.80;66.00;;;;;;4937882;29;20446;-95
2023/05/03 15:04:57;;;;;;;1.73;0.80;;;22.70;65.90;;;;;;4936846;29;20857;-93
2023/05/03 15:07:24;;;;;;;1.27;0.90;;;22.70;66.10;;;;;;4937853;29;20528;-92
2023/05/03 15:09:51;;;;;;;5.80;0.90;;;22.70;66.50;;;;;;4936211;29;20462;-93
2023/05/03 15:12:18;;;;;;;1.40;0.83;;;22.70;66.30;;;;;;4936580;29;20470;-93
2023/05/03 15:14:45;;;;;;;2.80;1.00;;;22.70;66.40;;;;;;4936291;29;21008;-93
2023/05/03 15:17:13;;;;;;;1.50;0.90;;;22.70;66.50;;;;;;4936902;29;20486;-92
2023/05/03 15:19:40;;;;;;;6.50;1.20;;;22.70;66.50;;;;;;4936123;29;20530;-93
2023/05/03 15:22:07;;;;;;;2.17;1.20;;;22.70;66.70;;;;;;4936181;29;20462;-93
2023/05/03 15:24:34;;;;;;;1.60;1.00;;;22.70;66.70;;;;;;4936418;29;20454;-91
2023/05/03 15:27:03;;;;;;;2.60;1.20;;;22.60;66.40;;;;;;4938517;29;20547;-92
2023/05/03 15:29:33;;;;;;;1.80;1.00;;;22.60;66.40;;;;;;4940080;29;20457;-92
2023/05/03 15:32:01;;;;;;;4.50;1.80;;;22.60;65.90;;;;;;4938967;29;20514;-92
2023/05/03 15:34:29;;;;;;;1.73;1.10;;;22.50;65.60;;;;;;4937452;29;20934;-92
2023/05/03 15:36:56;;;;;;;2.40;1.13;;;22.50;65.70;;;;;;4937892;29;20479;-94
2023/05/03 15:39:23;;;;;;;2.07;1.20;;;22.40;65.30;;;;;;4937497;29;20455;-92
2023/05/03 15:41:52;;;;;;;2.90;1.13;;;22.40;65.30;;;;;;4936013;29;20538;-92
2023/05/03 15:44:19;;;;;;;6.43;2.13;;;22.40;64.80;;;;;;4937037;29;20941;-93
2023/05/03 15:46:46;;;;;;;2.80;1.60;;;22.30;59.10;;;;;;4936023;29;20459;-92
2023/05/03 15:49:13;;;;;;;2.13;1.77;;;22.20;59.40;;;;;;4938080;29;20914;-92
2023/05/03 15:51:41;;;;;;;3.10;1.40;;;22.20;58.20;;;;;;4940282;29;20456;-92
2023/05/03 15:54:08;;;;;;;3.60;1.90;;;22.20;59.20;;;;;;4939979;29;20453;-93
2023/05/03 15:56:36;;;;;;;3.00;1.60;;;22.10;57.80;;;;;;4940256;29;20976;-93
2023/05/03 15:59:04;;;;;;;2.67;1.40;;;22.10;57.90;;;;;;4939776;29;20473;-92
2023/05/03 16:01:31;;;;;;;3.87;1.50;;;22.10;59.70;;;;;;4939391;29;20473;-92
2023/05/03 16:03:57;;;;;;;5.00;2.40;;;22.10;59.60;;;;;;4939457;29;20533;-93
2023/05/03 16:06:24;;;;;;;5.67;2.70;;;22.10;56.80;;;;;;4939736;29;20469;-92
2023/05/03 16:08:52;;;;;;;7.43;3.17;;;22.10;55.30;;;;;;4939665;29;20926;-93
2023/05/03 16:11:19;;;;;;;4.90;2.20;;;22.00;55.80;;;;;;4939604;29;20545;-93
2023/05/03 16:13:46;;;;;;;4.10;1.97;;;22.00;58.20;;;;;;4939593;29;20907;-93
2023/05/03 16:16:13;;;;;;;4.83;1.30;;;22.00;58.90;;;;;;4939425;29;20541;-93
2023/05/03 16:18:40;;;;;;;2.03;1.43;;;22.00;58.60;;;;;;4939154;29;20497;-93
2023/05/03 16:21:07;;;;;;;2.20;1.70;;;22.10;58.90;;;;;;4939203;29;20434;-93
2023/05/03 16:23:34;;;;;;;5.40;1.60;;;22.10;58.90;;;;;;4939617;29;20804;-92
2023/05/03 16:26:12;;;;;;;4.93;1.43;;;22.10;59.10;;;;;;4939369;29;20443;-94
2023/05/03 16:28:38;;;;;;;3.00;1.50;;;22.10;59.30;;;;;;4939116;29;20475;-94
2023/05/03 16:31:05;;;;;;;1.97;1.10;;;22.10;59.50;;;;;;4939350;29;20477;-94
2023/05/03 16:33:32;;;;;;;3.07;1.53;;;22.10;59.60;;;;;;4939619;29;20542;-94
2023/05/03 16:35:59;;;;;;;2.67;1.63;;;22.10;59.80;;;;;;4939067;29;20438;-86
2023/05/03 16:38:29;;;;;;;3.30;1.53;;;22.30;60.90;;;;;;4940175;29;20491;-94
2023/05/03 16:40:58;;;;;;;3.53;1.30;;;22.10;60.00;;;;;;4939260;29;20447;-94
2023/05/03 16:43:26;;;;;;;2.53;1.30;;;22.30;60.60;;;;;;4939303;29;20538;-94
2023/05/03 16:45:58;;;;;;;4.00;1.50;;;22.10;60.40;;;;;;4938783;29;20453;-94
2023/05/03 16:48:25;;;;;;;1.30;1.17;;;22.10;60.60;;;;;;4938624;29;20454;-94
2023/05/03 16:50:52;;;;;;;2.63;1.00;;;22.20;61.80;;;;;;4938895;29;20446;-94
2023/05/03 16:53:19;;;;;;;1.57;1.10;;;22.10;60.90;;;;;;4938720;29;20465;-94
2023/05/03 16:55:46;;;;;;;2.27;1.40;;;22.10;61.00;;;;;;4939164;29;20549;-94
2023/05/03 16:58:13;;;;;;;1.23;1.03;;;22.10;61.20;;;;;;4944566;29;20486;-95
2023/05/03 17:00:41;;;;;;;1.70;1.10;;;22.10;61.30;;;;;;4939817;29;20565;-95
2023/05/03 17:03:08;;;;;;;2.70;1.40;;;22.10;61.30;;;;;;4939842;29;20459;-95
2023/05/03 17:05:35;;;;;;;4.10;1.27;;;22.10;61.50;;;;;;4939150;29;20458;-95
2023/05/03 17:08:03;;;;;;;1.50;1.13;;;22.10;61.60;;;;;;4938804;29;20942;-94
2023/05/03 17:10:30;;;;;;;2.77;1.50;;;22.10;61.70;;;;;;4940226;29;20458;-95
2023/05/03 17:12:59;;;;;;;1.40;1.10;;;22.10;61.80;;;;;;4939109;29;20470;-95
2023/05/03 17:15:26;;;;;;;2.93;1.23;;;22.10;62.70;;;;;;4939802;29;20455;-96
2023/05/03 17:17:55;;;;;;;1.20;1.00;;;22.10;61.90;;;;;;4938953;29;20490;-96
2023/05/03 17:20:21;;;;;;;1.50;1.00;;;22.10;62.00;;;;;;4939281;29;20535;-96
2023/05/03 17:22:48;;;;;;;3.33;1.20;;;22.10;62.00;;;;;;4938862;29;20439;-87
2023/05/03 17:25:16;;;;;;;3.13;1.20;;;22.10;61.40;;;;;;4938196;29;20788;-88
2023/05/03 17:27:43;;;;;;;3.20;1.03;;;22.00;60.20;;;;;;4938210;29;20482;-87
2023/05/03 17:30:11;;;;;;;2.33;1.20;;;22.00;60.10;;;;;;4937757;29;20494;-88
2023/05/03 17:32:38;;;;;;;1.93;1.20;;;21.90;59.90;;;;;;4938533;29;20997;-95
2023/05/03 17:35:07;;;;;;;2.87;1.70;;;21.90;59.50;;;;;;4938953;29;20972;-94
2023/05/03 17:37:40;;;;;;;2.33;1.87;;;21.80;60.70;;;;;;4938352;29;20546;-93
2023/05/03 17:40:08;;;;;;;7.03;1.37;;;21.90;60.60;;;;;;4938513;29;20632;-94
2023/05/03 17:42:35;;;;;;;2.20;1.10;;;21.90;60.70;;;;;;4938131;29;20450;-95
2023/05/03 17:45:03;;;;;;;2.90;1.00;;;21.90;61.00;;;;;;4938386;29;20451;-94
2023/05/03 17:47:30;;;;;;;1.60;1.20;;;21.90;61.00;;;;;;4938098;29;20466;-95
2023/05/03 17:49:57;;;;;;;2.67;1.40;;;21.90;61.10;;;;;;4939015;29;20446;-95
2023/05/03 17:52:25;;;;;;;7.30;1.40;;;21.90;61.10;;;;;;4938215;29;20464;-94
2023/05/03 17:54:53;;;;;;;6.87;1.30;;;21.90;61.10;;;;;;4938523;29;20449;-92
2023/05/03 17:57:20;;;;;;;1.77;1.10;;;21.90;61.30;;;;;;4937741;29;20478;-92
2023/05/03 17:59:47;;;;;;;3.83;1.30;;;21.90;61.40;;;;;;4937323;29;20926;-93
2023/05/03 18:02:14;;;;;;;1.70;1.07;;;21.90;61.50;;;;;;4937311;29;20505;-93
2023/05/03 18:04:41;;;;;;;1.60;1.20;;;21.90;61.60;;;;;;4937863;29;20993;-93
2023/05/03 18:07:08;;;;;;;1.87;1.10;;;21.90;61.60;;;;;;4937285;29;21037;-92
2023/05/03 18:09:36;;;;;;;1.80;1.07;;;21.90;61.70;;;;;;4937201;29;20953;-92
2023/05/03 18:12:03;;;;;;;3.77;1.60;;;22.00;61.90;;;;;;4937314;29;20462;-91
2023/05/03 18:14:30;;;;;;;2.13;1.27;;;21.90;61.90;;;;;;4937920;29;20462;-91
2023/05/03 18:16:57;;;;;;;2.50;1.00;;;21.90;61.90;;;;;;4937211;29;20854;-91
2023/05/03 18:19:24;;;;;;;2.20;1.30;;;21.90;61.60;;;;;;4937000;29;20530;-91
2023/05/03 18:21:51;;;;;;;1.53;1.43;;;22.00;62.00;;;;;;4937241;29;20443;-91
2023/05/03 18:24:18;;;;;;;6.70;1.53;;;21.90;62.20;;;;;;4937065;29;20446;-91
2023/05/03 18:26:46;;;;;;;5.83;2.20;;;21.90;62.00;;;;;;4937042;29;20461;-91
2023/05/03 18:29:13;;;;;;;3.80;2.10;;;21.90;57.50;;;;;;4937116;29;20439;-91
2023/05/03 18:31:40;;;;;;;2.10;1.90;;;21.70;56.40;;;;;;4936955;29;20453;-89
2023/05/03 18:34:07;;;;;;;3.13;1.63;;;21.70;57.10;;;;;;4937028;29;20853;-88
2023/05/03 18:36:34;;;;;;;6.03;1.23;;;21.70;58.10;;;;;;4936863;29;20490;-88
2023/05/03 18:39:01;;;;;;;1.93;1.10;;;21.70;58.80;;;;;;4937024;29;20495;-91
2023/05/03 18:41:28;;;;;;;2.40;1.10;;;21.70;59.10;;;;;;4936981;29;20964;-90
2023/05/03 18:43:57;;;;;;;2.23;1.47;;;21.70;59.70;;;;;;4936779;29;20450;-90
2023/05/03 18:46:24;;;;;;;5.78;1.30;;;21.60;59.10;;;;;;4935941;29;20512;-90
2023/05/03 18:48:50;;;;;;;2.03;1.27;;;21.70;59.60;;;;;;4936538;29;20286;-88
2023/05/03 18:51:18;;;;;;;2.30;1.10;;;21.60;60.10;;;;;;4936679;29;20465;-89
2023/05/03 18:53:45;;;;;;;3.30;1.13;;;21.70;61.30;;;;;;4936338;29;21013;-88
2023/05/03 18:56:12;;;;;;;1.80;1.10;;;21.80;61.70;;;;;;4936361;29;20827;-88
2023/05/03 18:58:38;;;;;;;2.07;1.30;;;21.70;61.70;;;;;;4936137;29;20544;-88
2023/05/03 19:01:07;;;;;;;1.40;1.20;;;21.70;61.80;;;;;;4936187;29;20566;-87
2023/05/03 19:03:33;;;;;;;5.43;1.20;;;21.70;61.80;;;;;;4936289;29;20458;-89
2023/05/03 19:06:02;;;;;;;3.13;1.40;;;21.70;62.00;;;;;;4936513;29;20478;-89
2023/05/03 19:08:29;;;;;;;1.30;1.03;;;21.80;62.20;;;;;;4936564;29;20534;-91
2023/05/03 19:10:56;;;;;;;3.33;1.13;;;21.80;62.20;;;;;;4936259;29;20463;-89
2023/05/03 19:13:23;;;;;;;1.83;1.27;;;21.80;62.30;;;;;;4936093;29;20454;-89
2023/05/03 19:15:50;;;;;;;2.27;1.23;;;21.80;62.40;;;;;;4936451;29;20450;-88
2023/05/03 19:18:18;;;;;;;2.53;1.87;;;21.80;62.40;;;;;;4936297;29;20491;-87
2023/05/03 19:20:45;;;;;;;2.23;1.10;;;21.80;62.50;;;;;;4936332;29;20451;-88
2023/05/03 19:23:12;;;;;;;3.80;1.73;;;21.90;63.50;;;;;;4936283;29;20938;-89
2023/05/03 19:25:38;;;;;;;1.60;1.00;;;21.90;62.70;;;;;;4939730;29;20534;-89
2023/05/03 19:28:06;;;;;;;1.60;1.30;;;21.80;62.70;;;;;;4939849;29;20443;-87
2023/05/03 19:30:33;;;;;;;2.70;1.47;;;21.90;62.80;;;;;;4939630;29;20938;-87
2023/05/03 19:33:00;;;;;;;3.00;1.10;;;21.80;62.70;;;;;;4939800;29;20514;-87
2023/05/03 19:35:29;;;;;;;6.63;1.53;;;21.80;62.80;;;;;;4940104;29;20474;-89
2023/05/03 19:37:56;;;;;;;1.70;1.20;;;21.80;62.80;;;;;;4939668;29;20529;-88
2023/05/03 19:40:23;;;;;;;3.67;1.13;;;21.80;62.90;;;;;;4940033;29;20443;-87
2023/05/03 19:42:51;;;;;;;1.73;1.40;;;21.80;63.00;;;;;;4939947;29;20458;-87
2023/05/03 19:45:18;;;;;;;2.80;1.20;;;21.80;62.90;;;;;;4939908;29;20451;-88
2023/05/03 19:47:44;;;;;;;2.90;1.20;;;21.80;62.90;;;;;;4939884;29;20450;-87
2023/05/03 19:50:12;;;;;;;2.63;1.17;;;21.90;63.10;;;;;;4939448;29;20527;-88
2023/05/03 19:52:40;;;;;;;3.17;1.37;;;21.80;63.00;;;;;;4939768;29;20455;-89
2023/05/03 19:55:10;;;;;;;1.73;1.10;;;21.80;62.90;;;;;;4939318;29;20486;-88
2023/05/03 19:57:37;;;;;;;2.27;1.10;;;21.80;63.00;;;;;;4939510;29;20493;-88
2023/05/03 20:00:05;;;;;;;2.10;1.20;;;21.80;63.00;;;;;;4939177;29;20483;-87
2023/05/03 20:02:32;;;;;;;2.90;1.07;;;21.80;63.80;;;;;;4940247;29;20474;-88
2023/05/03 20:05:08;;;;;;;2.13;1.33;;;21.80;63.00;;;;;;4939550;29;20454;-89
2023/05/03 20:07:35;;;;;;;3.00;1.63;;;21.80;63.00;;;;;;4940138;29;20782;-90
2023/05/03 20:10:04;;;;;;;1.70;1.13;;;21.80;63.70;;;;;;4939249;29;20458;-90
2023/05/03 20:12:31;;;;;;;4.50;1.17;;;21.80;62.90;;;;;;4940721;29;20485;-89